Aérodrome :
LOGIN :

S'inscrire | Disclaimer

   EN    FR    IT 

 










Légende :    VFR   VFR Marginal   IFR   IFR Intensif   IFR Très Intensif
Visi : 
Plafond : 
>= 8 km
>= 3000ft
5 à 8 km
1000 à 3000 ft
1500m à 5 km
500 à 1000 ft
800 à 1500m
200 à 500 ft
< 800m
< 200 ft
Symboles :   Orages  Brouillard  Fortes neiges  Fortes précipitations  Vent > 20 kt
SIGMETs :   Divers  Orages  Givrage  Turbulence  Onde Orograph.  Cendres Volcan.







- Altitude de l'aérodrome : 935 ft


EBFS - Florennes

DERNIER METAR :
  • 230655Z AUTO 10005KT 9999 BKN210/// 03/02 Q1036 BLU

METARs EXPIRÉS :
  • 230625Z AUTO 10005KT 9999 BKN220/// 04/02 Q1036 BLU
  • 230555Z AUTO 10005KT 9999 OVC220/// 04/02 Q1036 BLU
  • 230525Z AUTO 11004KT 9999 OVC220/// 04/02 Q1036 BLU
  • 230455Z AUTO 10004KT 9999 OVC220/// 04/02 Q1036 BLU
  • 230425Z AUTO 12004KT 9999 OVC210/// 04/02 Q1036 BLU

TAF TAF EBFS
Valide du 23 à 07h jusqu'au 23 à 16h UTC


230541Z 2307/2316 11007KT 9999 SKC
TEMPO 2307/2309 5000 BR
Pas de NOTAMs connus pour ce terrain.



MET'MAP, la Météo Aéronautique d'un coup d'oeil ! - Copyright ORBIFLY Décembre 2007 - Disclaimer

ORBIFLY MET'MAP TEAM :

Programmation & Développement : Alexandra Zaïnal
Conception & Développement : Baudouin d'Aumeries
Co-Programmation & Développement : Marc-Olivier Méhu
Soutien technique & logistique : Manuel Goepfert

Contact : metmap@orbifly.com




SOURCES & CREDITS :

   NOAA